Terminal Aerodrome Forecast
Issued by NWS

Home | Current Version | Previous Version | Text Only | Print | Product List | Glossary On
Versions: 1 2 3 4 5 6 7 8 9 10 11 12 13 14 15 16 17
961
FTAK31 PAJN 171209 AAA
TAFAKT
TAF AMD
PAKT 171209Z 1712/1812 14008KT P6SM VCSH FEW006 SCT012 OVC025
      TEMPO 1712/1716 2SM -SHRA BKN006 OVC025
     FM172100 14010KT 3SM -SHRA SCT005 BKN012 OVC025
     FM180100 14012G20KT 6SM -SHRA BKN035 OVC050 PROB30 1801/1805
      4SM -SHRA BKN025 OVC040
      AMD LTD TO CLD VIS AND WIND 1712/1715=

USA.gov is the U.S. government's official web portal to all federal, state and local government web resources and services.